Crookhaven, Ireland
Current Conditions -  °F | °C
As of 3:30 PM on Sunday 21 Dec 2014 (Local Time) from EIKY Reporting Station
Overcast Overcast  
Wind Chill: 12°   Ceiling: 1000
Heat Index: 12°   Visibility: 6mi
Dew Point: 11°   Wind: 21mph
Humidity: 94%   Direction: 240°WSW
Pressure: 30.12"   Gusts: NA
Location:  51.47°N, 9.73°W
Report Text: EIKY 211430Z 24018KT 9999 OVC010 12/11 Q1020
Loading
Personal Weather Stations






























Interactive Weather Map New forecast layout! Learn more

10-Day Weather Forecast

Advertisements
Track Severe Weather on mobile